createdAt,value
2023-03-10T00:01:58.174Z,9.21
2023-03-10T00:05:07.735Z,9.21
2023-03-10T00:08:14.718Z,9.22
2023-03-10T00:11:20.333Z,9.20
2023-03-10T00:14:26.342Z,9.21
2023-03-10T00:17:32.610Z,9.21
2023-03-10T00:20:40.614Z,9.21
2023-03-10T00:23:46.291Z,9.18
2023-03-10T00:26:55.360Z,9.15
2023-03-10T00:30:01.587Z,9.08
2023-03-10T00:33:07.235Z,9.01
2023-03-10T00:36:23.078Z,8.95
2023-03-10T00:39:30.429Z,8.86
2023-03-10T00:42:35.772Z,8.79
2023-03-10T00:45:41.028Z,8.72
2023-03-10T00:48:48.439Z,8.64
2023-03-10T00:51:55.224Z,8.55
2023-03-10T00:55:01.132Z,8.48
2023-03-10T00:58:05.992Z,8.41
2023-03-10T01:01:12.249Z,8.37
2023-03-10T01:04:20.401Z,8.31
2023-03-10T01:07:26.624Z,8.27
2023-03-10T01:10:33.855Z,8.22
2023-03-10T01:13:42.228Z,8.18
2023-03-10T01:16:49.810Z,8.14
2023-03-10T01:19:55.249Z,8.11
2023-03-10T01:23:00.301Z,8.07
2023-03-10T01:26:05.380Z,8.03
2023-03-10T01:29:11.590Z,7.99
2023-03-10T01:32:18.266Z,7.98
2023-03-10T01:35:24.820Z,7.94
2023-03-10T01:38:32.949Z,7.90
2023-03-10T01:41:38.796Z,7.86
2023-03-10T01:44:46.034Z,7.81
2023-03-10T01:47:52.288Z,7.77
2023-03-10T01:51:03.487Z,7.71
2023-03-10T01:54:09.187Z,7.68
2023-03-10T01:57:16.007Z,7.63
2023-03-10T02:00:23.514Z,7.60
2023-03-10T02:03:45.331Z,7.57
2023-03-10T02:06:53.103Z,7.53
2023-03-10T02:10:02.419Z,7.47
2023-03-10T02:13:07.195Z,7.42
2023-03-10T02:16:14.433Z,7.39
2023-03-10T02:19:23.202Z,7.35
2023-03-10T02:22:30.686Z,7.32
2023-03-10T02:25:52.621Z,7.29
2023-03-10T02:28:58.157Z,7.25
2023-03-10T02:32:03.964Z,7.27
2023-03-10T02:35:12.112Z,7.25
2023-03-10T02:38:29.072Z,7.20
2023-03-10T02:41:45.463Z,7.15
2023-03-10T02:44:50.706Z,7.08
2023-03-10T02:47:55.579Z,7.04
2023-03-10T02:51:03.121Z,6.99
2023-03-10T02:54:08.670Z,6.93
2023-03-10T02:57:14.197Z,6.88
2023-03-10T03:00:21.957Z,6.81
2023-03-10T03:03:28.159Z,6.74
2023-03-10T03:06:36.004Z,6.68
2023-03-10T03:09:41.933Z,6.64
2023-03-10T03:12:47.949Z,6.59
2023-03-10T03:15:55.147Z,6.56
2023-03-10T03:19:01.702Z,6.54
2023-03-10T03:22:08.113Z,6.53
2023-03-10T03:25:13.567Z,6.58
2023-03-10T03:28:19.566Z,6.67
2023-03-10T03:31:35.250Z,6.76
2023-03-10T03:34:43.667Z,6.86
2023-03-10T03:37:49.454Z,6.93
2023-03-10T03:40:56.551Z,6.99
2023-03-10T03:44:02.960Z,7.05
2023-03-10T03:47:08.685Z,7.10
2023-03-10T03:50:14.495Z,7.17
2023-03-10T03:53:19.247Z,7.20
2023-03-10T03:56:24.406Z,7.26
2023-03-10T03:59:31.711Z,7.29
2023-03-10T04:02:37.785Z,7.35
2023-03-10T04:05:39.163Z,7.39
2023-03-10T04:08:39.138Z,7.41
2023-03-10T04:11:43.941Z,7.45
2023-03-10T04:14:51.182Z,7.49
2023-03-10T04:17:57.312Z,7.53
2023-03-10T04:21:04.162Z,7.56
2023-03-10T04:24:11.422Z,7.60
2023-03-10T04:27:18.221Z,7.61
2023-03-10T04:30:27.486Z,7.64
2023-03-10T04:33:34.807Z,7.67
2023-03-10T04:36:40.404Z,7.67
2023-03-10T04:39:47.448Z,7.69
2023-03-10T04:42:53.475Z,7.73
2023-03-10T04:46:01.485Z,7.74
2023-03-10T04:49:09.408Z,7.80
2023-03-10T04:52:16.062Z,7.84
2023-03-10T04:55:23.664Z,7.88
2023-03-10T04:58:30.111Z,7.92
2023-03-10T05:01:38.323Z,7.97
2023-03-10T05:04:45.934Z,8.03
2023-03-10T05:07:52.820Z,8.06
2023-03-10T05:10:58.553Z,8.08
2023-03-10T05:14:06.623Z,8.11
2023-03-10T05:17:12.531Z,8.13
2023-03-10T05:20:20.806Z,8.17
2023-03-10T05:23:27.837Z,8.21
2023-03-10T05:26:35.643Z,8.23
2023-03-10T05:29:42.110Z,8.27
2023-03-10T05:32:50.354Z,8.32
2023-03-10T05:35:57.435Z,8.35
2023-03-10T05:39:04.759Z,8.31
2023-03-10T05:42:13.306Z,8.27
2023-03-10T05:45:20.129Z,8.25
2023-03-10T05:48:26.174Z,8.27
2023-03-10T05:51:31.127Z,8.33
2023-03-10T05:54:39.410Z,8.33
2023-03-10T05:57:44.290Z,8.36
2023-03-10T06:00:50.472Z,8.40
2023-03-10T06:04:01.048Z,8.42
2023-03-10T06:07:10.279Z,8.44
2023-03-10T06:10:16.782Z,8.43
2023-03-10T06:13:22.719Z,8.47
2023-03-10T06:16:30.594Z,8.48
2023-03-10T06:19:38.866Z,8.45
2023-03-10T06:22:44.896Z,8.44
2023-03-10T06:25:53.076Z,8.34
2023-03-10T06:29:01.478Z,8.18
2023-03-10T06:32:08.865Z,8.04
2023-03-10T06:35:15.680Z,7.84
2023-03-10T06:38:22.645Z,7.72
2023-03-10T06:41:29.465Z,7.58
2023-03-10T06:44:35.032Z,7.37
2023-03-10T06:47:42.148Z,7.21
2023-03-10T06:50:50.015Z,7.02
2023-03-10T06:53:57.187Z,6.88
2023-03-10T06:57:05.934Z,6.77
2023-03-10T07:00:15.922Z,6.70
2023-03-10T07:03:24.046Z,6.65
2023-03-10T07:06:31.704Z,6.62
2023-03-10T07:09:38.771Z,6.59
2023-03-10T07:12:43.892Z,6.54
2023-03-10T07:15:50.570Z,6.54
2023-03-10T07:18:58.537Z,6.50
2023-03-10T07:22:04.946Z,6.54
2023-03-10T07:25:12.431Z,6.57
2023-03-10T07:28:19.584Z,6.59
2023-03-10T07:31:26.493Z,6.66
2023-03-10T07:34:33.732Z,6.68
2023-03-10T07:37:44.171Z,6.58
2023-03-10T07:40:52.005Z,6.36
2023-03-10T07:43:58.419Z,6.25
2023-03-10T07:47:06.500Z,6.18
2023-03-10T07:50:14.086Z,6.23
2023-03-10T07:53:26.128Z,6.27
2023-03-10T07:56:32.821Z,6.34
2023-03-10T07:59:38.618Z,6.42
2023-03-10T08:02:45.921Z,6.45
2023-03-10T08:05:57.605Z,6.44
2023-03-10T08:09:05.108Z,6.53
2023-03-10T08:12:15.884Z,6.62
2023-03-10T08:15:24.119Z,6.66
2023-03-10T08:18:33.732Z,6.81
2023-03-10T08:21:40.265Z,6.83
2023-03-10T08:24:48.729Z,6.89
2023-03-10T08:27:56.660Z,6.98
2023-03-10T08:31:05.419Z,7.05
2023-03-10T08:34:13.076Z,7.01
2023-03-10T08:37:20.464Z,6.83
2023-03-10T08:40:29.436Z,6.83
2023-03-10T08:43:35.375Z,6.88
2023-03-10T08:46:45.955Z,6.86
2023-03-10T08:49:49.914Z,6.82
2023-03-10T08:52:57.236Z,6.85
2023-03-10T08:56:03.822Z,6.93
2023-03-10T08:59:11.050Z,7.08
2023-03-10T09:02:17.387Z,7.13
2023-03-10T09:05:25.048Z,7.13
2023-03-10T09:08:30.962Z,7.13
2023-03-10T09:11:41.408Z,7.15
2023-03-10T09:14:48.539Z,7.11
2023-03-10T09:17:57.041Z,7.19
2023-03-10T09:21:02.356Z,7.36
2023-03-10T09:24:07.820Z,7.30
2023-03-10T09:27:15.949Z,7.31
2023-03-10T09:30:23.238Z,7.38
2023-03-10T09:33:33.119Z,7.44
2023-03-10T09:36:40.584Z,7.56
2023-03-10T09:39:46.932Z,7.56
2023-03-10T09:43:06.587Z,7.43
2023-03-10T09:46:29.118Z,7.49
2023-03-10T09:49:54.524Z,7.52
2023-03-10T09:53:15.734Z,7.55
2023-03-10T09:56:29.719Z,7.47
2023-03-10T09:59:47.087Z,7.54
2023-03-10T10:02:56.646Z,7.64
2023-03-10T10:06:08.885Z,7.68
2023-03-10T10:09:21.839Z,7.76
2023-03-10T10:12:31.051Z,7.81
2023-03-10T10:15:39.691Z,7.76
2023-03-10T10:18:57.207Z,7.82
2023-03-10T10:22:14.810Z,7.97
2023-03-10T10:25:36.946Z,8.17
2023-03-10T10:29:07.945Z,8.29
2023-03-10T10:32:25.355Z,8.43
2023-03-10T10:35:34.221Z,8.47
2023-03-10T10:38:44.928Z,8.44
2023-03-10T10:41:50.467Z,8.44
2023-03-10T10:44:57.674Z,8.40
